createdAt,value
2023-11-15T00:02:21.313Z,97978.53
2023-11-15T00:04:49.127Z,97975.31
2023-11-15T00:07:16.892Z,97981.45
2023-11-15T00:09:44.400Z,97983.03
2023-11-15T00:12:12.641Z,97982.69
2023-11-15T00:14:40.250Z,97983.09
2023-11-15T00:17:08.239Z,97987.20
2023-11-15T00:19:36.945Z,97986.59
2023-11-15T00:22:06.026Z,97986.39
2023-11-15T00:24:34.848Z,97990.52
2023-11-15T00:27:03.116Z,97988.52
2023-11-15T00:29:30.662Z,97987.46
2023-11-15T00:31:58.437Z,97989.10
2023-11-15T00:34:27.281Z,97989.30
2023-11-15T00:36:56.060Z,97987.02
2023-11-15T00:39:25.497Z,97980.66
2023-11-15T00:41:53.249Z,97980.71
2023-11-15T00:44:20.890Z,97974.48
2023-11-15T00:46:48.514Z,97972.39
2023-11-15T00:49:16.392Z,97970.12
2023-11-15T00:51:44.059Z,97963.16
2023-11-15T00:54:12.988Z,97967.52
2023-11-15T00:56:40.538Z,97962.94
2023-11-15T00:59:08.237Z,97959.58
2023-11-15T01:01:36.031Z,97951.92
2023-11-15T01:04:06.866Z,97955.29
2023-11-15T01:06:34.646Z,97952.17
2023-11-15T01:09:04.614Z,97946.53
2023-11-15T01:11:32.549Z,97939.11
2023-11-15T01:14:00.282Z,97931.75
2023-11-15T01:16:28.460Z,97930.47
2023-11-15T01:18:56.159Z,97932.71
2023-11-15T01:21:23.696Z,97935.52
2023-11-15T01:23:51.560Z,97941.27
2023-11-15T01:26:19.757Z,97938.98
2023-11-15T01:28:47.753Z,97937.02
2023-11-15T01:31:15.484Z,97934.52
2023-11-15T01:33:44.911Z,97929.73
2023-11-15T01:36:12.754Z,97932.38
2023-11-15T01:38:42.086Z,97936.04
2023-11-15T01:41:09.832Z,97937.84
2023-11-15T01:43:37.321Z,97943.23
2023-11-15T01:46:06.336Z,97942.09
2023-11-15T01:48:34.020Z,97934.60
2023-11-15T01:51:01.782Z,97937.95
2023-11-15T01:53:31.122Z,97935.89
2023-11-15T01:55:59.193Z,97930.98
2023-11-15T01:58:26.995Z,97925.69
2023-11-15T02:00:56.100Z,97927.16
2023-11-15T02:03:23.713Z,97923.81
2023-11-15T02:05:52.717Z,97929.44
2023-11-15T02:08:20.823Z,97930.16
2023-11-15T02:10:48.520Z,97937.43
2023-11-15T02:13:24.115Z,97938.23
2023-11-15T02:15:53.623Z,97935.86
2023-11-15T02:18:23.296Z,97934.14
2023-11-15T02:20:52.195Z,97936.77
2023-11-15T02:23:23.713Z,97940.41
2023-11-15T02:25:54.169Z,97940.81
2023-11-15T02:28:21.792Z,97945.98
2023-11-15T02:30:49.918Z,97944.56
2023-11-15T02:33:17.797Z,97946.27
2023-11-15T02:35:45.508Z,97950.45
2023-11-15T02:38:13.308Z,97949.68
2023-11-15T02:40:44.828Z,97951.41
2023-11-15T02:43:14.666Z,97952.39
2023-11-15T02:45:44.757Z,97952.66
2023-11-15T02:48:12.431Z,97952.81
2023-11-15T02:50:40.164Z,97957.58
2023-11-15T02:53:07.754Z,97960.50
2023-11-15T02:55:35.337Z,97960.80
2023-11-15T02:58:05.717Z,97961.09
2023-11-15T03:00:33.232Z,97961.68
2023-11-15T03:03:00.996Z,97960.53
2023-11-15T03:05:28.994Z,97958.73
2023-11-15T03:07:57.002Z,97963.25
2023-11-15T03:10:25.202Z,97966.27
2023-11-15T03:12:53.063Z,97970.50
2023-11-15T03:15:20.609Z,97972.44
2023-11-15T03:17:48.141Z,97972.70
2023-11-15T03:20:15.692Z,97973.96
2023-11-15T03:22:43.178Z,97968.15
2023-11-15T03:25:10.713Z,97969.61
2023-11-15T03:27:38.553Z,97969.61
2023-11-15T03:30:07.241Z,97970.02
2023-11-15T03:32:35.161Z,97965.95
2023-11-15T03:35:03.019Z,97965.43
2023-11-15T03:37:30.568Z,97969.05
2023-11-15T03:39:58.496Z,97972.23
2023-11-15T03:42:26.354Z,97985.70
2023-11-15T03:44:54.757Z,97992.13
2023-11-15T03:47:22.460Z,97993.94
2023-11-15T03:49:50.640Z,97983.13
2023-11-15T03:52:18.179Z,97979.27
2023-11-15T03:54:45.746Z,97984.02
2023-11-15T03:57:13.302Z,97991.83
2023-11-15T03:59:41.012Z,97996.64
2023-11-15T04:02:08.653Z,97997.30
2023-11-15T04:04:39.083Z,97989.92
2023-11-15T04:07:06.814Z,97997.36
2023-11-15T04:09:34.480Z,97993.11
2023-11-15T04:12:02.522Z,97995.00
2023-11-15T04:14:30.083Z,97994.99
2023-11-15T04:16:58.237Z,97995.61
2023-11-15T04:19:25.806Z,98002.08
2023-11-15T04:22:05.313Z,98002.40
2023-11-15T04:24:40.514Z,98003.20
2023-11-15T04:27:09.004Z,98001.94
2023-11-15T04:29:38.760Z,98005.36
2023-11-15T04:32:07.355Z,98009.29
2023-11-15T04:34:35.359Z,98007.15
2023-11-15T04:37:03.982Z,98005.27
2023-11-15T04:39:31.602Z,98006.31
2023-11-15T04:41:59.241Z,98011.55
2023-11-15T04:44:28.465Z,98012.72
2023-11-15T04:46:56.395Z,98011.91
2023-11-15T04:49:23.932Z,98010.52
2023-11-15T04:51:51.503Z,98015.02
2023-11-15T04:54:19.029Z,98020.23
2023-11-15T04:56:46.699Z,98020.52
2023-11-15T04:59:15.024Z,98026.24
2023-11-15T05:01:46.884Z,98027.29
2023-11-15T05:04:16.026Z,98029.16
2023-11-15T05:06:44.143Z,98026.55
2023-11-15T05:09:11.664Z,98027.99
2023-11-15T05:11:39.302Z,98029.84
2023-11-15T05:14:07.760Z,98027.42
2023-11-15T05:16:35.886Z,98032.42
2023-11-15T05:19:03.402Z,98034.59
2023-11-15T05:21:30.920Z,98034.58
2023-11-15T05:23:58.662Z,98037.94
2023-11-15T05:26:26.808Z,98039.06
2023-11-15T05:28:54.345Z,98036.36
2023-11-15T05:31:22.173Z,98038.79
2023-11-15T05:33:49.938Z,98036.55
2023-11-15T05:36:19.228Z,98040.18
2023-11-15T05:38:46.748Z,98041.11
2023-11-15T05:41:14.589Z,98035.77
2023-11-15T05:43:42.589Z,98032.98
2023-11-15T05:46:10.175Z,98033.19
2023-11-15T05:48:37.793Z,98040.17
2023-11-15T05:51:08.028Z,98041.75
2023-11-15T05:53:36.770Z,98047.85
2023-11-15T05:56:07.389Z,98046.25
2023-11-15T05:58:34.883Z,98044.83
2023-11-15T06:01:02.526Z,98040.70
2023-11-15T06:03:30.381Z,98055.20
2023-11-15T06:05:58.373Z,98050.73
2023-11-15T06:08:26.509Z,98058.17
2023-11-15T06:10:54.981Z,98057.16
2023-11-15T06:13:22.478Z,98063.43
2023-11-15T06:15:50.136Z,98068.71
2023-11-15T06:18:17.719Z,98068.52
2023-11-15T06:20:45.356Z,98069.51
2023-11-15T06:23:12.972Z,98072.56
2023-11-15T06:25:43.064Z,98069.60
2023-11-15T06:28:12.590Z,98070.91
2023-11-15T06:30:40.602Z,98070.79
2023-11-15T06:33:08.571Z,98077.72
2023-11-15T06:35:37.045Z,98074.13
2023-11-15T06:38:06.232Z,98072.66
2023-11-15T06:40:33.774Z,98071.56
2023-11-15T06:43:01.337Z,98071.80
2023-11-15T06:45:30.121Z,98070.36
2023-11-15T06:47:58.413Z,98071.48
2023-11-15T06:50:27.312Z,98071.38
2023-11-15T06:52:54.904Z,98070.19
2023-11-15T06:55:23.086Z,98063.85
2023-11-15T06:57:50.676Z,98063.61
2023-11-15T07:00:18.350Z,98063.36
2023-11-15T07:02:47.203Z,98062.16
2023-11-15T07:05:15.011Z,98066.30
2023-11-15T07:07:42.749Z,98066.55
2023-11-15T07:10:11.125Z,98068.47
2023-11-15T07:12:39.581Z,98067.70
2023-11-15T07:15:15.598Z,98072.91
2023-11-15T07:17:44.888Z,98073.64
2023-11-15T07:20:12.708Z,98073.17
2023-11-15T07:22:40.317Z,98071.20
2023-11-15T07:25:08.511Z,98071.85
2023-11-15T07:27:38.085Z,98067.29
2023-11-15T07:30:09.411Z,98065.27
2023-11-15T07:32:39.481Z,98067.15
2023-11-15T07:35:10.138Z,98070.71
2023-11-15T07:37:38.691Z,98070.10
2023-11-15T07:40:11.494Z,98072.06
2023-11-15T07:42:41.023Z,98073.31
2023-11-15T07:45:12.101Z,98069.11
2023-11-15T07:47:41.745Z,98065.50
2023-11-15T07:50:12.372Z,98066.30
2023-11-15T07:52:41.091Z,98064.79
2023-11-15T07:55:09.103Z,98065.00
2023-11-15T07:57:36.751Z,98059.04
2023-11-15T08:00:06.051Z,98057.58
2023-11-15T08:02:40.257Z,98055.84
2023-11-15T08:05:08.582Z,98058.30
2023-11-15T08:07:37.525Z,98061.23
2023-11-15T08:10:07.300Z,98060.16
2023-11-15T08:12:37.510Z,98056.98
2023-11-15T08:15:06.599Z,98052.69
2023-11-15T08:17:37.815Z,98049.08
2023-11-15T08:20:10.692Z,98048.39
2023-11-15T08:22:39.159Z,98047.11
2023-11-15T08:25:10.840Z,98046.64
2023-11-15T08:27:40.150Z,98047.69
2023-11-15T08:30:16.434Z,98048.25
2023-11-15T08:32:49.231Z,98052.50
2023-11-15T08:35:18.697Z,98053.60
2023-11-15T08:37:46.395Z,98058.51
2023-11-15T08:40:26.021Z,98054.42
2023-11-15T08:42:56.863Z,98050.96
2023-11-15T08:45:25.116Z,98047.54
2023-11-15T08:47:53.038Z,98045.30
2023-11-15T08:50:23.402Z,98041.68
2023-11-15T08:52:51.307Z,98037.85
2023-11-15T08:55:19.838Z,98037.27
2023-11-15T08:57:47.722Z,98026.16
2023-11-15T09:00:17.149Z,98027.48
2023-11-15T09:02:49.727Z,98026.80
2023-11-15T09:05:21.098Z,98020.69
2023-11-15T09:07:49.021Z,98016.73
2023-11-15T09:10:17.870Z,98020.13
2023-11-15T09:12:48.449Z,98024.36
2023-11-15T09:15:16.673Z,98019.30
2023-11-15T09:17:48.324Z,98014.88
2023-11-15T09:20:20.927Z,98011.55
2023-11-15T09:22:50.920Z,98002.46
2023-11-15T09:25:32.039Z,98002.14
2023-11-15T09:28:00.907Z,98002.42
2023-11-15T09:30:32.497Z,98000.47
2023-11-15T09:33:01.294Z,97993.81
2023-11-15T09:35:29.708Z,97992.05
2023-11-15T09:38:00.560Z,97992.06
2023-11-15T09:40:28.746Z,97993.38
2023-11-15T09:42:57.370Z,97989.42
2023-11-15T09:45:25.526Z,97981.96
2023-11-15T09:47:58.351Z,97989.77
2023-11-15T09:50:32.724Z,97988.99
2023-11-15T09:53:03.901Z,97991.86
2023-11-15T09:55:31.653Z,97990.73
2023-11-15T09:57:59.232Z,97986.66
2023-11-15T10:00:30.806Z,97983.64
2023-11-15T10:02:59.292Z,97981.23
2023-11-15T10:05:30.600Z,97982.27
2023-11-15T10:08:12.456Z,97981.66
2023-11-15T10:10:43.130Z,97986.55
2023-11-15T10:13:16.395Z,97985.52
2023-11-15T10:15:47.732Z,97986.83
2023-11-15T10:18:16.708Z,97980.40
2023-11-15T10:20:44.869Z,97980.64
2023-11-15T10:23:13.628Z,97979.63
2023-11-15T10:25:49.412Z,97973.86
2023-11-15T10:28:18.432Z,97967.91
2023-11-15T10:30:50.006Z,97972.59
2023-11-15T10:33:18.880Z,97970.81
2023-11-15T10:39:00.291Z,97967.39
2023-11-15T10:41:30.059Z,97967.15
2023-11-15T10:43:57.207Z,97969.95
2023-11-15T10:46:31.357Z,97971.01
2023-11-15T10:48:59.958Z,97968.52
2023-11-15T10:51:42.836Z,97971.34
2023-11-15T10:54:09.898Z,97967.77
2023-11-15T10:56:38.062Z,97966.67
2023-11-15T10:59:05.471Z,97973.58
2023-11-15T11:01:34.848Z,97976.61
2023-11-15T11:04:06.552Z,97978.69
2023-11-15T11:06:50.928Z,97976.80
2023-11-15T11:09:31.162Z,97974.80
2023-11-15T11:12:11.632Z,97971.91
2023-11-15T11:14:38.824Z,97968.22
2023-11-15T11:17:32.399Z,97967.92
2023-11-15T11:20:03.186Z,97970.89
2023-11-15T11:22:30.797Z,97974.98
2023-11-15T11:25:11.346Z,97973.21
2023-11-15T11:27:42.888Z,97972.82
2023-11-15T11:30:21.418Z,97969.82
2023-11-15T11:32:49.858Z,97979.11
2023-11-15T11:35:24.327Z,97977.00
2023-11-15T11:37:56.087Z,97984.27
2023-11-15T11:40:32.895Z,97985.48
2023-11-15T11:43:16.139Z,97987.66
2023-11-15T11:45:44.278Z,97984.19
2023-11-15T11:48:17.966Z,97985.50
2023-11-15T11:50:54.320Z,97984.49
2023-11-15T11:53:24.587Z,97984.52
2023-11-15T11:55:55.175Z,97985.41
2023-11-15T11:58:23.311Z,97981.34
2023-11-15T12:00:50.330Z,97984.40
2023-11-15T12:03:18.780Z,97986.84
2023-11-15T12:05:48.473Z,97982.97
2023-11-15T12:08:15.660Z,97981.48
2023-11-15T12:10:43.739Z,97983.45
2023-11-15T12:13:11.841Z,97980.27
2023-11-15T12:15:39.596Z,97981.98
2023-11-15T12:18:07.413Z,97985.04
2023-11-15T12:20:39.080Z,97986.01
2023-11-15T12:23:09.947Z,97993.08
2023-11-15T12:25:52.531Z,97992.30
2023-11-15T12:28:22.151Z,97989.54
2023-11-15T12:30:49.898Z,97998.94
2023-11-15T12:33:16.907Z,97993.39
2023-11-15T12:35:44.702Z,97992.30
2023-11-15T12:38:14.992Z,97990.48
2023-11-15T12:40:42.920Z,97990.85
2023-11-15T12:43:23.259Z,97991.48
2023-11-15T12:45:51.684Z,97992.02
2023-11-15T12:48:19.056Z,97991.50
2023-11-15T12:50:46.630Z,97996.63
2023-11-15T12:53:15.362Z,97995.46
2023-11-15T12:55:50.239Z,97995.36
2023-11-15T12:58:29.571Z,98001.68
2023-11-15T13:01:01.395Z,98003.27
2023-11-15T13:03:31.269Z,97996.46
2023-11-15T13:06:14.817Z,97992.31
2023-11-15T13:08:44.001Z,97992.61
2023-11-15T13:11:18.254Z,97992.95
2023-11-15T13:13:49.951Z,98001.90
2023-11-15T13:16:20.699Z,98007.87
2023-11-15T13:18:48.872Z,98005.65
2023-11-15T13:21:16.754Z,98005.69
2023-11-15T13:23:47.464Z,98003.79
2023-11-15T13:26:14.941Z,98011.65
2023-11-15T13:28:44.551Z,98010.98
2023-11-15T13:31:13.529Z,98013.95
2023-11-15T13:33:48.827Z,98016.47
2023-11-15T13:36:20.900Z,98016.58
2023-11-15T13:38:48.159Z,98017.00
2023-11-15T13:41:17.820Z,98017.10
2023-11-15T13:43:47.525Z,98017.96
2023-11-15T13:46:14.953Z,98015.96
2023-11-15T13:48:42.763Z,98017.30
2023-11-15T13:51:11.909Z,98019.73
2023-11-15T13:53:39.703Z,98030.50
2023-11-15T13:56:07.798Z,98031.13
2023-11-15T13:58:36.427Z,98029.12
2023-11-15T14:01:05.229Z,98034.77
2023-11-15T14:03:33.284Z,98036.31
2023-11-15T14:06:03.898Z,98035.09
2023-11-15T14:08:46.961Z,98033.23
2023-11-15T14:11:28.215Z,98040.35
2023-11-15T14:13:55.071Z,98037.73
2023-11-15T14:16:23.540Z,98043.44
2023-11-15T14:18:50.863Z,98043.80
2023-11-15T14:21:18.080Z,98039.71
2023-11-15T14:23:45.411Z,98044.59
2023-11-15T14:26:14.467Z,98050.00
2023-11-15T14:28:44.056Z,98047.15
2023-11-15T14:31:11.313Z,98043.88
2023-11-15T14:33:38.849Z,98047.45
2023-11-15T14:36:07.104Z,98049.23
2023-11-15T14:38:33.930Z,98054.17
2023-11-15T14:41:05.350Z,98054.32
2023-11-15T14:43:32.820Z,98055.18
2023-11-15T14:45:59.701Z,98053.40
2023-11-15T14:48:27.416Z,98050.08
2023-11-15T14:50:54.301Z,98050.06
2023-11-15T14:53:23.767Z,98055.70
2023-11-15T14:55:51.422Z,98057.70
2023-11-15T14:58:19.107Z,98060.66
2023-11-15T15:00:47.077Z,98066.91
2023-11-15T15:03:15.043Z,98067.45
2023-11-15T15:05:42.004Z,98067.35
2023-11-15T15:08:08.878Z,98069.13
2023-11-15T15:10:38.390Z,98069.67
2023-11-15T15:13:08.969Z,98068.52
2023-11-15T15:15:36.870Z,98076.39
2023-11-15T15:18:11.323Z,98070.34
2023-11-15T15:20:44.480Z,98075.60
2023-11-15T15:23:11.486Z,98076.75
2023-11-15T15:25:39.071Z,98080.16
2023-11-15T15:28:06.280Z,98085.27
2023-11-15T15:30:33.235Z,98079.84
2023-11-15T15:33:02.438Z,98083.93
2023-11-15T15:35:30.269Z,98088.78
2023-11-15T15:37:57.518Z,98088.78
2023-11-15T15:40:30.522Z,98091.10
2023-11-15T15:42:57.393Z,98090.52
2023-11-15T15:45:27.112Z,98096.70
2023-11-15T15:47:54.352Z,98098.90
2023-11-15T15:50:21.309Z,98100.20
2023-11-15T15:52:48.092Z,98099.51
2023-11-15T15:55:14.958Z,98101.60
2023-11-15T15:57:42.488Z,98101.66
2023-11-15T16:00:11.296Z,98097.63
2023-11-15T16:02:38.506Z,98099.62
2023-11-15T16:05:06.361Z,98102.42
2023-11-15T16:07:33.208Z,98101.65
2023-11-15T16:10:01.917Z,98098.70
2023-11-15T16:12:29.214Z,98100.37
2023-11-15T16:14:57.543Z,98101.98
2023-11-15T16:17:25.127Z,98108.98
2023-11-15T16:19:53.994Z,98111.52
2023-11-15T16:22:23.145Z,98108.02
2023-11-15T16:24:50.104Z,98108.00
2023-11-15T16:27:22.312Z,98111.36
2023-11-15T16:29:51.989Z,98116.73
2023-11-15T16:32:18.936Z,98115.96
2023-11-15T16:34:47.521Z,98119.93
2023-11-15T16:37:14.349Z,98118.14
2023-11-15T16:39:41.334Z,98118.28
2023-11-15T16:42:08.574Z,98124.52
2023-11-15T16:44:36.707Z,98123.90
2023-11-15T16:47:04.690Z,98127.31
2023-11-15T16:49:31.501Z,98128.77
2023-11-15T16:52:00.010Z,98130.36
2023-11-15T16:54:27.977Z,98131.02
2023-11-15T16:56:55.692Z,98130.27
2023-11-15T16:59:22.628Z,98128.28
2023-11-15T17:01:49.452Z,98127.73
2023-11-15T17:04:16.504Z,98129.84
2023-11-15T17:06:43.307Z,98127.27
2023-11-15T17:09:10.803Z,98124.19
2023-11-15T17:11:37.716Z,98118.27
2023-11-15T17:14:04.492Z,98128.24
2023-11-15T17:16:32.054Z,98130.67
2023-11-15T17:18:59.719Z,98127.55
2023-11-15T17:21:27.253Z,98134.48
2023-11-15T17:23:54.624Z,98132.19
2023-11-15T17:26:21.734Z,98135.17
2023-11-15T17:28:48.555Z,98137.48
2023-11-15T17:31:16.198Z,98137.77
2023-11-15T17:33:43.482Z,98136.39
2023-11-15T17:36:10.726Z,98136.67
2023-11-15T17:38:37.554Z,98137.89
2023-11-15T17:41:06.037Z,98135.70
2023-11-15T17:43:33.988Z,98134.86
2023-11-15T17:46:05.778Z,98136.39
2023-11-15T17:48:34.310Z,98133.20
2023-11-15T17:51:01.186Z,98139.16
2023-11-15T17:53:28.172Z,98140.14
2023-11-15T17:55:55.004Z,98147.54
2023-11-15T17:58:23.042Z,98151.56
2023-11-15T18:00:50.010Z,98154.90
2023-11-15T18:03:16.972Z,98152.56
2023-11-15T18:05:44.018Z,98152.63
2023-11-15T18:08:11.630Z,98145.90
2023-11-15T18:10:38.911Z,98158.05
2023-11-15T18:13:06.018Z,98160.33
2023-11-15T18:15:33.429Z,98162.17
2023-11-15T18:18:00.701Z,98161.67
2023-11-15T18:20:28.391Z,98159.18
2023-11-15T18:22:57.416Z,98162.35
2023-11-15T18:25:27.948Z,98161.14
2023-11-15T18:27:55.161Z,98160.54
2023-11-15T18:30:23.033Z,98157.27
2023-11-15T18:32:52.693Z,98156.96
2023-11-15T18:35:19.588Z,98159.86
2023-11-15T18:37:46.673Z,98160.73
2023-11-15T18:40:18.678Z,98160.58
2023-11-15T18:42:45.690Z,98161.63
2023-11-15T18:45:12.950Z,98164.94
2023-11-15T18:47:41.135Z,98163.66
2023-11-15T18:50:09.054Z,98165.52
2023-11-15T18:52:39.512Z,98168.08
2023-11-15T18:55:12.579Z,98171.98
2023-11-15T18:57:43.161Z,98168.88
2023-11-15T19:00:18.719Z,98170.61
2023-11-15T19:02:46.227Z,98175.70
2023-11-15T19:05:16.572Z,98178.84
2023-11-15T19:07:43.777Z,98175.80
2023-11-15T19:10:19.363Z,98178.21
2023-11-15T19:12:48.745Z,98180.13
2023-11-15T19:15:15.749Z,98181.00
2023-11-15T19:17:49.183Z,98187.25
2023-11-15T19:20:20.218Z,98192.17
2023-11-15T19:22:47.554Z,98192.11
2023-11-15T19:25:15.603Z,98193.93
2023-11-15T19:27:43.483Z,98190.63
2023-11-15T19:30:13.287Z,98192.52
2023-11-15T19:32:40.720Z,98188.58
2023-11-15T19:35:08.828Z,98189.19
2023-11-15T19:37:38.198Z,98190.02
2023-11-15T19:40:09.709Z,98189.58
2023-11-15T19:42:37.553Z,98188.31
2023-11-15T19:45:07.234Z,98186.25
2023-11-15T19:47:34.195Z,98189.75
2023-11-15T19:50:01.148Z,98189.15
2023-11-15T19:52:28.001Z,98188.29
2023-11-15T19:54:56.630Z,98185.20
2023-11-15T19:57:23.634Z,98185.84
2023-11-15T19:59:51.496Z,98188.45
2023-11-15T20:02:18.429Z,98194.49
2023-11-15T20:04:45.390Z,98201.77
2023-11-15T20:07:14.674Z,98198.15
2023-11-15T20:09:41.625Z,98205.11
2023-11-15T20:12:08.915Z,98208.05
2023-11-15T20:14:35.850Z,98210.92
2023-11-15T20:17:02.656Z,98211.04
2023-11-15T20:19:29.687Z,98206.76
2023-11-15T20:21:56.465Z,98204.20
2023-11-15T20:24:23.855Z,98202.73
2023-11-15T20:26:50.760Z,98199.17
2023-11-15T20:29:19.156Z,98196.63
2023-11-15T20:31:46.081Z,98200.21
2023-11-15T20:34:13.561Z,98197.77
2023-11-15T20:36:40.497Z,98201.88
2023-11-15T20:39:21.493Z,98202.95
2023-11-15T20:41:51.988Z,98201.57
2023-11-15T20:44:18.861Z,98200.95
2023-11-15T20:46:45.809Z,98201.21
2023-11-15T20:49:12.976Z,98199.87
2023-11-15T20:51:47.359Z,98200.14
2023-11-15T20:54:18.165Z,98202.35
2023-11-15T20:56:45.563Z,98202.55
2023-11-15T20:59:12.602Z,98199.98
2023-11-15T21:01:39.807Z,98203.63
2023-11-15T21:04:11.289Z,98206.33
2023-11-15T21:06:38.371Z,98205.61
2023-11-15T21:09:09.622Z,98204.36
2023-11-15T21:11:39.597Z,98205.27
2023-11-15T21:14:08.222Z,98204.58
2023-11-15T21:16:36.387Z,98206.01
2023-11-15T21:19:04.314Z,98208.64
2023-11-15T21:21:31.114Z,98211.09
2023-11-15T21:23:58.121Z,98212.27
2023-11-15T21:26:25.253Z,98215.34
2023-11-15T21:28:54.257Z,98213.77
2023-11-15T21:31:21.851Z,98214.50
2023-11-15T21:33:48.798Z,98221.95
2023-11-15T21:36:17.351Z,98227.51
2023-11-15T21:38:44.833Z,98226.00
2023-11-15T21:41:11.524Z,98224.67
2023-11-15T21:43:38.564Z,98226.69
2023-11-15T21:46:05.527Z,98224.40
2023-11-15T21:48:35.344Z,98221.55
2023-11-15T21:51:02.187Z,98223.60
2023-11-15T21:53:31.897Z,98221.98
2023-11-15T21:55:59.150Z,98222.16
2023-11-15T21:58:25.829Z,98222.20
2023-11-15T22:00:53.936Z,98227.17
2023-11-15T22:03:20.790Z,98224.58
2023-11-15T22:05:47.813Z,98226.05
2023-11-15T22:08:14.626Z,98227.47
2023-11-15T22:10:43.610Z,98228.92
2023-11-15T22:13:13.060Z,98230.49
2023-11-15T22:15:39.717Z,98229.83
2023-11-15T22:18:06.841Z,98229.39
2023-11-15T22:20:35.197Z,98227.34
2023-11-15T22:23:02.472Z,98226.88
2023-11-15T22:25:29.229Z,98224.84
2023-11-15T22:27:56.156Z,98222.92
2023-11-15T22:30:23.321Z,98224.85
2023-11-15T22:32:50.185Z,98225.95
2023-11-15T22:35:17.257Z,98229.02
2023-11-15T22:37:45.596Z,98233.59
2023-11-15T22:40:12.545Z,98230.66
2023-11-15T22:42:39.572Z,98230.46
2023-11-15T22:45:07.367Z,98227.34
2023-11-15T22:47:34.163Z,98224.69
2023-11-15T22:50:00.935Z,98234.73
2023-11-15T22:52:28.243Z,98228.86
2023-11-15T22:56:29.805Z,98229.45
2023-11-15T22:58:57.341Z,98225.61
2023-11-15T23:01:24.828Z,98229.61
2023-11-15T23:03:53.428Z,98227.59
2023-11-15T23:06:21.437Z,98225.56
2023-11-15T23:08:51.875Z,98229.52
2023-11-15T23:11:20.254Z,98229.63
2023-11-15T23:13:49.224Z,98230.56
2023-11-15T23:16:16.812Z,98232.55
2023-11-15T23:18:45.067Z,98235.48
2023-11-15T23:21:12.918Z,98236.54
2023-11-15T23:23:40.576Z,98242.95
2023-11-15T23:26:09.740Z,98237.97
2023-11-15T23:28:38.162Z,98232.28
2023-11-15T23:31:08.577Z,98236.12
2023-11-15T23:33:37.082Z,98237.30
2023-11-15T23:36:05.765Z,98235.18
2023-11-15T23:38:33.333Z,98229.13
2023-11-15T23:41:02.323Z,98225.47
2023-11-15T23:43:30.040Z,98227.40
2023-11-15T23:45:58.773Z,98223.98
2023-11-15T23:48:26.456Z,98225.44
2023-11-15T23:50:54.648Z,98225.72
2023-11-15T23:53:22.976Z,98230.48
2023-11-15T23:55:51.325Z,98230.26
2023-11-15T23:58:20.072Z,98231.94
